Time;durP1;ratioP1;P1;durP2;ratioP2;P2;SDS_P1;SDS_P2;PMS_P1;PMS_P2;Temp;Humidity;BMP_temperature;BMP_pressure;BME280_temperature;BME280_humidity;BME280_pressure;Samples;Min_cycle;Max_cycle;Signal;HPM_P1;HPM_P2
2022/04/07 00:00:19;;;;;;;10.55;4.07;;;9.30;99.90;;;;;;5095936;28;20521;-77
2022/04/07 00:02:47;;;;;;;7.55;4.40;;;9.30;99.90;;;;;;5077850;28;20048;-76
2022/04/07 00:05:14;;;;;;;9.27;3.58;;;9.40;99.90;;;;;;5096429;28;20095;-77
2022/04/07 00:07:40;;;;;;;12.98;3.92;;;9.30;99.90;;;;;;5077350;28;20385;-77
2022/04/07 00:10:09;;;;;;;6.85;3.70;;;9.30;99.90;;;;;;5078096;28;20155;-77
2022/04/07 00:12:37;;;;;;;10.15;3.70;;;9.40;99.90;;;;;;5078032;28;20056;-77
2022/04/07 00:15:04;;;;;;;8.20;3.80;;;9.30;99.90;;;;;;5077814;28;20385;-77
2022/04/07 00:17:31;;;;;;;9.02;3.17;;;9.30;99.90;;;;;;5077818;28;20050;-76
2022/04/07 00:19:58;;;;;;;9.32;3.22;;;9.20;99.90;;;;;;5095940;28;20048;-77
2022/04/07 00:22:25;;;;;;;10.40;3.30;;;9.20;99.90;;;;;;5094888;28;20128;-77
2022/04/07 00:24:52;;;;;;;6.95;3.35;;;9.10;99.90;;;;;;5077679;28;20078;-77
2022/04/07 00:27:20;;;;;;;7.78;2.83;;;9.30;99.90;;;;;;5077248;28;20413;-77
2022/04/07 00:29:46;;;;;;;10.07;2.70;;;9.10;99.90;;;;;;5076863;28;20068;-78
2022/04/07 00:32:13;;;;;;;6.93;2.45;;;9.10;99.90;;;;;;5096197;28;20048;-77
2022/04/07 00:34:44;;;;;;;5.93;2.10;;;9.10;99.90;;;;;;5077566;28;20056;-77
2022/04/07 00:37:11;;;;;;;8.57;2.10;;;9.00;99.90;;;;;;5077795;28;20391;-77
2022/04/07 00:39:39;;;;;;;8.20;2.03;;;9.10;99.90;;;;;;5095022;28;20089;-76
2022/04/07 00:42:06;;;;;;;11.43;2.70;;;9.10;99.90;;;;;;5094433;28;20538;-77
2022/04/07 00:44:34;;;;;;;11.05;2.60;;;9.00;99.90;;;;;;5077888;28;20122;-77
2022/04/07 00:47:00;;;;;;;8.35;2.40;;;9.00;99.90;;;;;;5078031;28;20094;-78
2022/04/07 00:49:27;;;;;;;10.93;2.08;;;9.00;99.90;;;;;;5077452;28;20074;-77
2022/04/07 00:51:55;;;;;;;11.88;2.90;;;9.10;99.90;;;;;;5096119;28;20040;-76
2022/04/07 00:54:21;;;;;;;7.82;2.63;;;9.10;99.90;;;;;;5078292;28;20377;-76
2022/04/07 00:56:48;;;;;;;8.90;2.47;;;9.10;99.90;;;;;;5076657;28;20140;-77
2022/04/07 00:59:17;;;;;;;7.85;3.00;;;9.10;99.90;;;;;;5077236;28;20527;-77
2022/04/07 01:01:46;;;;;;;11.32;3.53;;;9.10;99.90;;;;;;5077379;28;20525;-77
2022/04/07 01:04:13;;;;;;;14.02;3.42;;;9.10;99.90;;;;;;5094783;28;20044;-77
2022/04/07 01:06:42;;;;;;;7.43;3.20;;;9.10;99.90;;;;;;5095707;28;20076;-77
2022/04/07 01:09:09;;;;;;;13.95;3.42;;;9.10;99.90;;;;;;5077084;28;20048;-77
2022/04/07 01:11:37;;;;;;;13.05;2.97;;;9.10;99.90;;;;;;5077371;28;20075;-77
2022/04/07 01:14:05;;;;;;;9.35;3.08;;;9.00;99.90;;;;;;5095212;28;20557;-77
2022/04/07 01:16:32;;;;;;;8.80;2.65;;;9.00;99.90;;;;;;5074062;28;20090;-77
2022/04/07 01:19:01;;;;;;;11.80;3.22;;;9.00;99.90;;;;;;5056390;28;20140;-77
2022/04/07 01:21:30;;;;;;;14.82;3.00;;;9.00;99.90;;;;;;5060638;28;20132;-77
2022/04/07 01:24:03;;;;;;;19.23;3.17;;;9.50;99.90;;;;;;5056808;28;20052;-77
2022/04/07 01:26:37;;;;;;;14.40;3.38;;;8.80;99.90;;;;;;5057218;28;20480;-76
2022/04/07 01:29:04;;;;;;;14.80;3.65;;;8.70;99.90;;;;;;5056825;28;20056;-77
2022/04/07 01:31:32;;;;;;;12.40;3.75;;;8.60;99.90;;;;;;5056545;28;20075;-78
2022/04/07 01:34:00;;;;;;;13.32;4.25;;;8.50;99.90;;;;;;5056472;28;20139;-77
2022/04/07 01:36:29;;;;;;;10.63;2.45;;;8.50;99.90;;;;;;5065588;28;20051;-77
2022/04/07 01:38:56;;;;;;;7.40;2.28;;;8.40;99.90;;;;;;5094619;28;20454;-78
2022/04/07 01:41:24;;;;;;;9.20;2.30;;;8.30;99.90;;;;;;5076946;28;20086;-78
2022/04/07 01:43:55;;;;;;;11.18;3.15;;;8.30;99.90;;;;;;5094601;28;20083;-77
2022/04/07 01:46:22;;;;;;;;;;;8.30;99.90;;;;;;5094697;28;20129;-78
2022/04/07 01:48:51;;;;;;;20.48;3.90;;;8.30;99.90;;;;;;5077235;28;19970;-78
2022/04/07 01:51:19;;;;;;;15.18;4.43;;;8.30;99.90;;;;;;5076882;28;20084;-77
2022/04/07 01:53:47;;;;;;;10.95;3.95;;;8.40;99.90;;;;;;5076324;28;20127;-77
2022/04/07 01:56:15;;;;;;;16.52;4.65;;;8.40;99.90;;;;;;5076592;28;20087;-78
2022/04/07 01:58:42;;;;;;;12.27;4.28;;;8.40;99.90;;;;;;5076846;28;20412;-78
2022/04/07 02:01:10;;;;;;;16.85;4.50;;;8.50;99.90;;;;;;5075954;28;20504;-77
2022/04/07 02:03:38;;;;;;;15.13;4.68;;;8.50;99.90;;;;;;5076726;28;20066;-78
2022/04/07 02:06:15;;;;;;;12.48;4.57;;;8.40;99.90;;;;;;5076917;28;20055;-77
2022/04/07 02:08:43;;;;;;;17.92;4.63;;;8.50;99.90;;;;;;5076735;28;20048;-77
2022/04/07 02:11:11;;;;;;;14.35;5.75;;;8.50;99.90;;;;;;5095533;28;20048;-78
2022/04/07 02:13:39;;;;;;;15.85;4.57;;;8.50;99.90;;;;;;5071800;28;20127;-77
2022/04/07 02:16:06;;;;;;;13.15;4.68;;;8.50;99.90;;;;;;5056870;28;20084;-78
2022/04/07 02:18:35;;;;;;;16.38;4.38;;;8.50;99.90;;;;;;5072958;28;20055;-78
2022/04/07 02:21:02;;;;;;;16.98;4.40;;;8.50;99.90;;;;;;5077330;28;20123;-78
2022/04/07 02:23:29;;;;;;;16.83;3.90;;;8.50;99.90;;;;;;5077379;28;20083;-79
2022/04/07 02:25:56;;;;;;;21.85;3.72;;;8.50;99.90;;;;;;5094301;28;20410;-78
2022/04/07 02:28:23;;;;;;;11.60;3.80;;;8.50;99.90;;;;;;5075672;28;20087;-79
2022/04/07 02:30:50;;;;;;;15.63;4.38;;;8.50;99.90;;;;;;5093897;28;20113;-79
2022/04/07 02:33:17;;;;;;;15.00;3.38;;;8.50;99.90;;;;;;5075646;28;20083;-78
2022/04/07 02:35:45;;;;;;;15.35;3.78;;;8.50;99.90;;;;;;5093914;28;20105;-78
2022/04/07 02:38:12;;;;;;;15.68;3.58;;;8.60;99.90;;;;;;5075645;28;20113;-79
2022/04/07 02:40:39;;;;;;;15.93;4.15;;;8.60;99.90;;;;;;5075992;28;20488;-78
2022/04/07 02:43:06;;;;;;;13.05;3.60;;;8.70;99.90;;;;;;5075190;28;20087;-78
2022/04/07 02:45:33;;;;;;;14.68;3.33;;;8.70;99.90;;;;;;5094111;28;20052;-78
2022/04/07 02:48:00;;;;;;;14.07;4.22;;;8.70;99.90;;;;;;5076852;28;20048;-78
2022/04/07 02:50:27;;;;;;;16.65;4.43;;;8.70;99.90;;;;;;5093782;28;20074;-78
2022/04/07 02:52:55;;;;;;;15.65;4.00;;;8.70;99.90;;;;;;5076261;28;20492;-77
2022/04/07 02:55:24;;;;;;;14.50;5.05;;;8.80;99.90;;;;;;5093368;28;20083;-78
2022/04/07 02:57:51;;;;;;;14.45;3.97;;;8.80;99.90;;;;;;5093841;28;20056;-78
2022/04/07 03:00:18;;;;;;;14.82;3.67;;;8.70;99.90;;;;;;5093613;28;20106;-78
2022/04/07 03:02:45;;;;;;;11.73;3.95;;;8.70;99.90;;;;;;5093073;28;20690;-78
2022/04/07 03:05:12;;;;;;;12.38;4.35;;;8.80;99.90;;;;;;5075326;28;20087;-77
2022/04/07 03:07:38;;;;;;;17.95;5.03;;;8.80;99.90;;;;;;5076111;28;20052;-78
2022/04/07 03:10:07;;;;;;;14.15;4.43;;;8.80;99.90;;;;;;5093909;28;20060;-79
2022/04/07 03:12:34;;;;;;;18.70;4.85;;;8.80;99.90;;;;;;5076464;28;20127;-77
2022/04/07 03:15:01;;;;;;;14.60;4.50;;;8.70;99.90;;;;;;5076850;28;20052;-79
2022/04/07 03:17:28;;;;;;;10.73;3.97;;;8.70;99.90;;;;;;5094621;28;20054;-79
2022/04/07 03:19:55;;;;;;;13.77;5.13;;;8.70;99.90;;;;;;5094530;28;20048;-79
2022/04/07 03:22:22;;;;;;;11.82;4.32;;;8.70;99.90;;;;;;5094502;28;20047;-79
2022/04/07 03:24:49;;;;;;;11.18;4.40;;;8.70;99.90;;;;;;5075343;28;20117;-79
2022/04/07 03:27:17;;;;;;;12.77;4.70;;;8.80;99.90;;;;;;5094741;28;20613;-79
2022/04/07 03:29:44;;;;;;;13.57;4.97;;;8.80;99.90;;;;;;5097683;28;20515;-79
2022/04/07 03:32:10;;;;;;;11.30;4.20;;;8.80;99.90;;;;;;5080498;28;20070;-79
2022/04/07 03:34:37;;;;;;;15.32;4.22;;;8.90;99.90;;;;;;5093893;28;20087;-79
2022/04/07 03:37:05;;;;;;;11.73;4.28;;;8.80;99.90;;;;;;5091966;28;20048;-78
2022/04/07 03:39:31;;;;;;;13.88;5.03;;;8.90;99.90;;;;;;5080579;28;20603;-79
2022/04/07 03:41:59;;;;;;;15.93;4.75;;;8.90;99.90;;;;;;5080086;28;20463;-79
2022/04/07 03:44:27;;;;;;;15.93;4.50;;;8.90;99.90;;;;;;5098225;28;20080;-79
2022/04/07 03:46:54;;;;;;;15.05;4.05;;;8.90;99.90;;;;;;5079424;28;20088;-79
2022/04/07 03:49:21;;;;;;;10.38;3.72;;;8.90;99.90;;;;;;5079483;28;20087;-79
2022/04/07 03:51:48;;;;;;;10.35;3.10;;;8.90;99.90;;;;;;5078874;28;20483;-79
2022/04/07 03:54:17;;;;;;;13.32;3.90;;;8.90;99.90;;;;;;5079470;28;20095;-79
2022/04/07 03:56:45;;;;;;;17.15;3.83;;;8.90;99.90;;;;;;5098084;28;20496;-79
2022/04/07 03:59:12;;;;;;;12.93;3.92;;;8.90;99.90;;;;;;5079180;28;20109;-78
2022/04/07 04:01:40;;;;;;;13.15;3.95;;;9.00;99.90;;;;;;5097734;28;20106;-78
2022/04/07 04:04:07;;;;;;;15.40;4.70;;;9.00;99.90;;;;;;5098323;28;20521;-78
2022/04/07 04:06:35;;;;;;;13.68;3.25;;;8.90;99.90;;;;;;5082518;28;20060;-78
2022/04/07 04:09:02;;;;;;;18.60;4.40;;;8.90;99.90;;;;;;5104876;28;20056;-78
2022/04/07 04:11:29;;;;;;;18.00;4.28;;;8.90;99.90;;;;;;5091659;28;20090;-77
2022/04/07 04:13:56;;;;;;;17.55;4.78;;;9.10;99.90;;;;;;5093164;28;20116;-78
2022/04/07 04:16:22;;;;;;;17.67;4.00;;;8.80;99.90;;;;;;5108434;28;20435;-77
2022/04/07 04:18:50;;;;;;;15.38;4.75;;;8.70;99.90;;;;;;5097679;28;20094;-79
2022/04/07 04:21:17;;;;;;;20.42;4.50;;;8.70;99.90;;;;;;5078824;28;20052;-78
2022/04/07 04:23:44;;;;;;;21.23;5.18;;;8.60;99.90;;;;;;5078835;28;20135;-77
2022/04/07 04:26:11;;;;;;;24.52;6.20;;;8.60;99.90;;;;;;5079072;28;20148;-77
2022/04/07 04:28:38;;;;;;;21.65;4.45;;;8.50;99.90;;;;;;5075692;28;20135;-78
2022/04/07 04:31:05;;;;;;;19.92;4.55;;;8.50;99.90;;;;;;5077682;28;20129;-78
2022/04/07 04:33:32;;;;;;;20.88;5.00;;;8.50;99.90;;;;;;5075812;28;20096;-78
2022/04/07 04:36:00;;;;;;;22.10;4.82;;;8.40;99.90;;;;;;5058131;28;20129;-78
2022/04/07 04:38:27;;;;;;;16.50;4.35;;;8.50;99.90;;;;;;5060909;28;20119;-77
2022/04/07 04:40:54;;;;;;;24.25;5.40;;;8.40;99.90;;;;;;5069435;28;20052;-77
2022/04/07 04:43:21;;;;;;;25.73;6.30;;;8.40;99.90;;;;;;5065993;28;20481;-77
2022/04/07 04:45:48;;;;;;;27.73;5.57;;;8.40;99.90;;;;;;5067373;28;20102;-77
2022/04/07 04:48:14;;;;;;;12.65;4.82;;;8.40;99.90;;;;;;5068790;28;20098;-76
2022/04/07 04:50:41;;;;;;;15.65;5.05;;;8.40;99.90;;;;;;5066576;28;20563;-77
2022/04/07 04:53:09;;;;;;;20.40;4.38;;;8.40;99.90;;;;;;5068009;28;20053;-77
2022/04/07 04:55:37;;;;;;;21.40;4.97;;;8.40;99.90;;;;;;5064866;28;20053;-77
2022/04/07 04:58:04;;;;;;;20.52;5.53;;;8.40;99.90;;;;;;5068028;28;20083;-76
2022/04/07 05:00:30;;;;;;;16.58;5.28;;;8.30;99.90;;;;;;5069050;28;20122;-77
2022/04/07 05:02:57;;;;;;;21.52;6.30;;;8.30;99.90;;;;;;5066716;28;20129;-77
2022/04/07 05:05:24;;;;;;;19.67;5.95;;;8.30;99.90;;;;;;5068608;28;20423;-77
2022/04/07 05:07:51;;;;;;;19.08;5.53;;;8.30;99.90;;;;;;5065207;28;20465;-77
2022/04/07 05:10:19;;;;;;;17.75;4.88;;;8.40;99.90;;;;;;5064232;28;20080;-77
2022/04/07 05:12:46;;;;;;;16.02;4.70;;;8.30;99.90;;;;;;5064742;28;20055;-79
2022/04/07 05:15:13;;;;;;;19.88;5.30;;;8.30;99.90;;;;;;5069917;28;20044;-78
2022/04/07 05:17:40;;;;;;;21.48;5.22;;;8.20;99.90;;;;;;5063876;28;20106;-79
2022/04/07 05:20:09;;;;;;;9.68;2.75;;;8.20;99.90;;;;;;5064491;28;20052;-78
2022/04/07 05:22:36;;;;;;;9.63;2.58;;;8.10;99.90;;;;;;5061396;28;20080;-79
2022/04/07 05:25:03;;;;;;;11.90;3.85;;;7.90;99.90;;;;;;5062913;28;20056;-79
2022/04/07 05:27:32;;;;;;;9.38;1.77;;;7.60;99.90;;;;;;5064406;28;20576;-78
2022/04/07 05:30:00;;;;;;;10.27;2.15;;;7.30;99.90;;;;;;5063266;28;20500;-80
2022/04/07 05:32:26;;;;;;;8.48;1.90;;;6.90;99.90;;;;;;5062586;28;20040;-79
2022/04/07 05:34:53;;;;;;;5.15;1.80;;;6.60;99.90;;;;;;5065872;28;20132;-79
2022/04/07 05:37:20;;;;;;;6.93;1.80;;;6.40;99.90;;;;;;5065926;28;20072;-78
2022/04/07 05:39:47;;;;;;;8.82;1.80;;;6.30;99.90;;;;;;5065657;28;20053;-79
2022/04/07 05:42:14;;;;;;;9.10;2.30;;;6.20;99.90;;;;;;5062839;28;20075;-78
2022/04/07 05:44:42;;;;;;;7.38;2.13;;;6.10;99.90;;;;;;5064128;28;20131;-80
2022/04/07 05:47:09;;;;;;;8.25;2.13;;;6.10;99.90;;;;;;5063387;28;20071;-80
2022/04/07 05:49:36;;;;;;;11.32;2.75;;;6.10;99.90;;;;;;5068105;28;20559;-80
2022/04/07 05:52:04;;;;;;;13.18;2.90;;;6.10;99.90;;;;;;5061166;28;20060;-78
2022/04/07 05:54:31;;;;;;;7.40;2.35;;;6.10;99.90;;;;;;5058981;28;20484;-80
2022/04/07 05:56:59;;;;;;;9.38;3.47;;;6.00;99.90;;;;;;5054567;28;20084;-79
2022/04/07 05:59:25;;;;;;;8.60;2.42;;;6.00;99.90;;;;;;5064245;28;20099;-80
2022/04/07 06:01:54;;;;;;;7.55;1.70;;;5.90;99.90;;;;;;5062759;28;20119;-80
2022/04/07 06:04:20;;;;;;;3.65;1.55;;;5.90;99.90;;;;;;5070262;28;20083;-80
2022/04/07 06:06:47;;;;;;;9.02;1.30;;;5.80;99.90;;;;;;5061907;28;20222;-80
2022/04/07 06:09:14;;;;;;;8.40;1.77;;;5.80;99.90;;;;;;5064576;28;20511;-80
2022/04/07 06:11:41;;;;;;;12.48;2.58;;;5.70;99.90;;;;;;5063154;28;20049;-80
2022/04/07 06:14:08;;;;;;;12.45;2.08;;;5.70;99.90;;;;;;5065442;28;20079;-80
2022/04/07 06:16:35;;;;;;;9.60;2.40;;;5.60;99.90;;;;;;5061850;28;20080;-80
2022/04/07 06:19:03;;;;;;;5.70;1.90;;;5.50;99.90;;;;;;5064988;28;20071;-81
2022/04/07 06:21:30;;;;;;;7.65;1.88;;;5.50;99.90;;;;;;5063146;28;20079;-81
2022/04/07 06:23:58;;;;;;;3.58;1.40;;;5.40;99.90;;;;;;5060617;28;20041;-80
2022/04/07 06:26:25;;;;;;;4.00;1.23;;;5.40;99.90;;;;;;5069053;28;20472;-80
2022/04/07 06:28:52;;;;;;;9.15;1.85;;;5.30;99.90;;;;;;5073634;28;20477;-80
2022/04/07 06:31:19;;;;;;;6.10;1.40;;;5.30;99.90;;;;;;5071174;28;20087;-80
2022/04/07 06:33:46;;;;;;;7.07;1.35;;;5.20;99.90;;;;;;5070134;28;20072;-80
2022/04/07 06:36:14;;;;;;;5.60;1.20;;;5.20;99.90;;;;;;5070045;28;20087;-80
2022/04/07 06:38:40;;;;;;;3.33;1.27;;;5.20;99.90;;;;;;5071697;28;20102;-81
2022/04/07 06:41:08;;;;;;;3.88;1.15;;;5.10;99.90;;;;;;5069615;28;20052;-80
2022/04/07 06:43:35;;;;;;;5.28;1.55;;;5.10;99.90;;;;;;5071675;28;20041;-79
2022/04/07 06:46:02;;;;;;;2.95;0.80;;;5.10;99.90;;;;;;5071130;28;20045;-79
2022/04/07 06:48:28;;;;;;;2.42;0.80;;;5.20;99.90;;;;;;5070834;28;20080;-76
2022/04/07 06:50:55;;;;;;;4.65;1.50;;;5.20;99.90;;;;;;5071232;28;20080;-79
2022/04/07 06:53:23;;;;;;;2.90;0.82;;;4.40;99.90;;;;;;5069805;28;20087;-80
2022/04/07 06:55:50;;;;;;;7.32;1.48;;;5.40;99.90;;;;;;5069066;28;20142;-79
2022/04/07 06:58:18;;;;;;;3.55;1.05;;;5.20;99.90;;;;;;5069641;28;20140;-80
2022/04/07 07:00:46;;;;;;;5.15;1.40;;;5.20;99.90;;;;;;5070499;28;20080;-79
2022/04/07 07:03:15;;;;;;;1.63;0.80;;;5.30;99.90;;;;;;5070613;28;20076;-80
2022/04/07 07:05:43;;;;;;;3.75;1.20;;;5.30;99.90;;;;;;5073430;28;20491;-79
2022/04/07 07:08:14;;;;;;;2.78;1.02;;;5.30;99.90;;;;;;5073380;28;20084;-80
2022/04/07 07:10:42;;;;;;;4.07;1.20;;;5.30;99.90;;;;;;5073129;28;20109;-80
2022/04/07 07:13:09;;;;;;;4.50;1.02;;;5.50;99.90;;;;;;5073177;28;20121;-80
2022/04/07 07:15:36;;;;;;;4.90;1.10;;;5.50;99.90;;;;;;5073865;28;20056;-80
2022/04/07 07:18:03;;;;;;;4.22;1.10;;;5.50;99.90;;;;;;5074249;28;20048;-80
2022/04/07 07:20:30;;;;;;;4.90;0.88;;;5.50;99.90;;;;;;5073793;28;20163;-79
2022/04/07 07:22:57;;;;;;;3.30;1.00;;;5.50;99.90;;;;;;5073602;28;20532;-79
2022/04/07 07:25:24;;;;;;;3.88;1.00;;;5.50;99.90;;;;;;5073337;28;20052;-79
2022/04/07 07:27:52;;;;;;;2.78;0.80;;;5.60;99.90;;;;;;5075525;28;20053;-79
2022/04/07 07:30:20;;;;;;;2.47;0.90;;;5.60;99.90;;;;;;5094614;28;20089;-79
2022/04/07 07:32:48;;;;;;;3.33;1.00;;;5.60;99.90;;;;;;5076489;28;20084;-79
2022/04/07 07:35:17;;;;;;;2.03;1.00;;;5.60;99.90;;;;;;5073215;28;20691;-80
2022/04/07 07:37:51;;;;;;;3.55;1.10;;;5.60;99.90;;;;;;5093668;28;20094;-78
2022/04/07 07:40:20;;;;;;;6.90;1.20;;;5.60;99.90;;;;;;5094181;28;20048;-80
2022/04/07 07:42:48;;;;;;;6.65;1.13;;;5.60;99.90;;;;;;5094241;28;20105;-80
2022/04/07 07:45:18;;;;;;;4.20;1.20;;;5.60;99.90;;;;;;5072157;28;20063;-80
2022/04/07 07:47:44;;;;;;;2.47;1.20;;;5.70;99.90;;;;;;5076257;28;20411;-80
2022/04/07 07:50:12;;;;;;;3.83;1.23;;;5.70;99.90;;;;;;5071732;28;20072;-80
2022/04/07 07:52:38;;;;;;;3.20;1.50;;;5.80;99.90;;;;;;5092674;28;20044;-80
2022/04/07 07:55:06;;;;;;;4.20;1.20;;;5.90;99.90;;;;;;5076330;28;20124;-80
2022/04/07 07:57:33;;;;;;;3.15;1.10;;;5.90;99.90;;;;;;5074757;28;20091;-78
2022/04/07 08:00:00;;;;;;;2.75;1.10;;;5.90;99.90;;;;;;5074781;28;20048;-79
2022/04/07 08:02:30;;;;;;;2.40;1.20;;;6.20;99.90;;;;;;5096117;28;20091;-79
2022/04/07 08:04:57;;;;;;;5.40;1.27;;;7.30;99.90;;;;;;5075928;28;20055;-80
2022/04/07 08:07:24;;;;;;;4.10;1.17;;;8.70;99.90;;;;;;5075644;28;20446;-80
2022/04/07 08:09:51;;;;;;;6.60;1.20;;;9.10;99.90;;;;;;5094170;28;20481;-80
2022/04/07 08:12:18;;;;;;;6.75;1.30;;;8.60;99.90;;;;;;5075075;28;20051;-80
2022/04/07 08:14:45;;;;;;;5.78;1.20;;;8.60;99.90;;;;;;5074681;28;20087;-79
2022/04/07 08:17:12;;;;;;;3.20;1.15;;;9.00;99.90;;;;;;5093441;28;20131;-80
2022/04/07 08:19:40;;;;;;;5.47;1.20;;;9.80;99.90;;;;;;5075296;28;20461;-80
2022/04/07 08:22:07;;;;;;;5.65;1.65;;;10.60;99.90;;;;;;5075293;28;20063;-79
2022/04/07 08:24:35;;;;;;;3.80;1.20;;;11.20;99.90;;;;;;5093906;28;20044;-81
2022/04/07 08:27:02;;;;;;;4.70;1.05;;;11.50;99.90;;;;;;5074730;28;20059;-81
2022/04/07 08:29:29;;;;;;;7.03;1.63;;;12.10;99.90;;;;;;5093558;28;20452;-80
2022/04/07 08:31:56;;;;;;;4.18;1.60;;;12.40;99.90;;;;;;5093311;28;20436;-81
2022/04/07 08:34:25;;;;;;;5.97;1.27;;;12.40;99.90;;;;;;5075149;28;20098;-82
2022/04/07 08:36:53;;;;;;;7.50;1.40;;;12.90;99.90;;;;;;5093282;28;20059;-82
2022/04/07 08:39:21;;;;;;;3.70;1.17;;;13.10;99.90;;;;;;5075376;28;20143;-81
2022/04/07 08:41:48;;;;;;;4.93;1.35;;;13.10;99.90;;;;;;5074093;28;20056;-81
2022/04/07 08:44:16;;;;;;;4.47;1.35;;;13.20;99.90;;;;;;5075124;28;20139;-81
2022/04/07 08:46:52;;;;;;;6.90;1.70;;;13.50;99.90;;;;;;5092999;28;20094;-81
2022/04/07 08:49:22;;;;;;;4.07;1.23;;;13.60;99.90;;;;;;5074033;28;20056;-81
2022/04/07 08:51:50;;;;;;;3.70;1.00;;;14.10;99.90;;;;;;5075181;28;20048;-81
2022/04/07 08:54:19;;;;;;;4.57;1.58;;;14.30;99.90;;;;;;5092149;28;20044;-81
2022/04/07 08:56:46;;;;;;;9.00;1.40;;;14.00;99.90;;;;;;5075259;28;20450;-81
2022/04/07 08:59:12;;;;;;;3.67;1.52;;;14.20;99.90;;;;;;5074693;28;20098;-81
2022/04/07 09:01:39;;;;;;;5.22;1.25;;;14.40;99.90;;;;;;5077359;28;20071;-81
2022/04/07 09:04:06;;;;;;;4.78;1.30;;;14.80;99.90;;;;;;5075691;28;20054;-81
2022/04/07 09:06:35;;;;;;;3.53;1.27;;;14.80;99.90;;;;;;5074942;28;20126;-81
2022/04/07 09:09:11;;;;;;;6.35;1.67;;;14.20;99.90;;;;;;5092006;28;20083;-81
2022/04/07 09:11:39;;;;;;;7.65;1.70;;;13.50;99.90;;;;;;5092634;28;20056;-81
2022/04/07 09:14:08;;;;;;;5.93;1.42;;;12.80;99.90;;;;;;5074449;28;20056;-81
2022/04/07 09:16:38;;;;;;;7.38;1.50;;;12.90;99.90;;;;;;5091672;28;20109;-82
2022/04/07 09:19:05;;;;;;;5.53;1.38;;;13.60;99.90;;;;;;5074470;28;20063;-81
2022/04/07 09:21:31;;;;;;;6.35;1.25;;;13.60;99.90;;;;;;5074574;28;20411;-81
2022/04/07 09:24:00;;;;;;;5.90;1.67;;;13.80;99.90;;;;;;5091569;28;20054;-81
2022/04/07 09:26:29;;;;;;;5.13;1.50;;;13.60;99.90;;;;;;5074051;28;20097;-80
2022/04/07 09:28:58;;;;;;;5.28;1.60;;;13.40;99.90;;;;;;5092005;28;20052;-80
2022/04/07 09:31:24;;;;;;;5.78;1.80;;;13.20;99.90;;;;;;5073841;28;20396;-79
2022/04/07 09:33:55;;;;;;;9.07;1.48;;;12.80;99.90;;;;;;5078445;28;20404;-80
2022/04/07 09:36:24;;;;;;;5.45;1.77;;;12.50;99.90;;;;;;5073864;28;20478;-80
2022/04/07 09:38:52;;;;;;;8.65;1.70;;;12.10;99.90;;;;;;5092164;28;20048;-80
2022/04/07 09:41:20;;;;;;;6.07;1.63;;;11.90;99.90;;;;;;5074003;28;20415;-81
2022/04/07 09:43:48;;;;;;;7.28;1.75;;;11.60;99.90;;;;;;5073314;28;20475;-81
2022/04/07 09:46:18;;;;;;;9.77;1.60;;;11.40;99.90;;;;;;5073864;28;20446;-79
2022/04/07 09:49:00;;;;;;;5.15;1.90;;;11.30;99.90;;;;;;5073387;28;20127;-80
2022/04/07 09:51:27;;;;;;;4.65;1.50;;;11.10;99.90;;;;;;5091610;28;20051;-80
2022/04/07 09:53:56;;;;;;;7.25;1.90;;;11.00;99.90;;;;;;5073371;28;20054;-80
2022/04/07 09:56:27;;;;;;;9.07;2.17;;;11.10;99.90;;;;;;5092127;28;20051;-80
2022/04/07 09:58:55;;;;;;;11.10;2.38;;;10.90;99.90;;;;;;5072788;28;20392;-79
2022/04/07 10:01:23;;;;;;;6.20;1.92;;;10.80;99.90;;;;;;5092592;28;20048;-80
2022/04/07 10:03:51;;;;;;;6.95;1.90;;;10.60;99.90;;;;;;5091278;28;20079;-80
2022/04/07 10:06:18;;;;;;;11.13;2.80;;;9.90;99.90;;;;;;5090586;28;20135;-80
2022/04/07 10:08:48;;;;;;;12.73;2.60;;;9.50;99.90;;;;;;5072924;28;20634;-80
2022/04/07 10:11:16;;;;;;;10.57;2.60;;;9.00;99.90;;;;;;5072934;28;20044;-78
2022/04/07 10:13:44;;;;;;;8.98;2.05;;;9.40;99.90;;;;;;5068312;28;20500;-79
2022/04/07 10:16:12;;;;;;;9.10;2.50;;;10.70;99.90;;;;;;5074393;28;20079;-79
2022/04/07 10:18:46;;;;;;;12.13;2.40;;;11.50;99.90;;;;;;5080665;28;20099;-80
2022/04/07 10:21:35;;;;;;;6.00;1.92;;;11.50;99.90;;;;;;5092969;28;20056;-78
2022/04/07 10:24:17;;;;;;;8.43;1.88;;;11.10;99.90;;;;;;5089765;28;20136;-79
2022/04/07 10:26:47;;;;;;;6.47;1.63;;;10.40;99.90;;;;;;5086008;28;20048;-79
2022/04/07 10:29:21;;;;;;;8.00;1.50;;;9.80;99.90;;;;;;5073328;28;20136;-79
2022/04/07 10:32:19;;;;;;;6.13;1.60;;;9.20;99.90;;;;;;5072751;28;20062;-79
2022/04/07 10:34:59;;;;;;;7.03;1.77;;;8.70;99.90;;;;;;5048785;28;20053;-79
2022/04/07 10:37:31;;;;;;;11.07;1.98;;;8.90;99.90;;;;;;5066507;28;20094;-80
2022/04/07 10:40:26;;;;;;;9.43;1.90;;;9.40;99.90;;;;;;5072698;28;20159;-79
2022/04/07 10:43:10;;;;;;;6.93;2.10;;;9.60;99.90;;;;;;5083719;28;20471;-79
2022/04/07 10:45:39;;;;;;;8.98;2.33;;;9.80;99.90;;;;;;5091162;28;20048;-80
2022/04/07 10:48:28;;;;;;;12.73;2.22;;;9.50;99.90;;;;;;5090345;28;20883;-79
2022/04/07 10:50:58;;;;;;;8.55;2.42;;;9.40;99.90;;;;;;5073566;28;20056;-80
2022/04/07 10:53:27;;;;;;;6.68;2.20;;;9.20;99.90;;;;;;5060711;28;20044;-79
2022/04/07 10:55:56;;;;;;;7.88;2.10;;;9.00;99.90;;;;;;5060005;28;20472;-78
2022/04/07 10:58:38;;;;;;;6.93;2.17;;;8.80;99.90;;;;;;5065389;28;20136;-79
2022/04/07 11:01:05;;;;;;;9.80;2.08;;;8.80;99.90;;;;;;5077486;28;20532;-77
2022/04/07 11:03:32;;;;;;;9.57;2.65;;;8.90;99.90;;;;;;5089005;28;20135;-78
2022/04/07 11:06:04;;;;;;;8.52;2.10;;;9.20;99.90;;;;;;5087495;28;20083;-76
2022/04/07 11:08:31;;;;;;;8.07;2.65;;;9.40;99.90;;;;;;5080999;28;20044;-78
2022/04/07 11:10:58;;;;;;;9.13;2.70;;;9.70;99.90;;;;;;5080239;28;20109;-78
2022/04/07 11:13:43;;;;;;;9.80;2.50;;;9.90;99.90;;;;;;5066460;28;20111;-80
2022/04/07 11:16:19;;;;;;;7.95;2.63;;;10.00;99.90;;;;;;5079725;28;20363;-79
2022/04/07 11:19:13;;;;;;;14.95;2.47;;;10.30;99.90;;;;;;5082015;28;20059;-79
2022/04/07 11:21:51;;;;;;;18.33;3.75;;;10.50;99.90;;;;;;5084065;28;20048;-80
2022/04/07 11:24:24;;;;;;;10.63;2.88;;;10.80;99.90;;;;;;5067042;28;20045;-79
2022/04/07 11:26:53;;;;;;;8.70;1.95;;;10.80;99.90;;;;;;5072094;28;20044;-80
2022/04/07 11:29:32;;;;;;;11.30;3.47;;;10.80;99.90;;;;;;5071862;28;20095;-80
2022/04/07 11:32:07;;;;;;;7.65;2.22;;;10.80;99.90;;;;;;5094614;28;20098;-79
2022/04/07 11:34:50;;;;;;;6.68;2.97;;;10.60;99.90;;;;;;5087140;28;20090;-80
2022/04/07 11:37:19;;;;;;;9.18;2.78;;;10.70;99.90;;;;;;5087046;28;20040;-79
2022/04/07 11:39:48;;;;;;;10.90;2.85;;;10.50;99.90;;;;;;5069129;28;20077;-78
2022/04/07 11:42:16;;;;;;;11.60;2.30;;;10.30;99.90;;;;;;5072389;28;20143;-79
2022/04/07 11:44:44;;;;;;;18.45;3.42;;;10.20;99.90;;;;;;5089682;28;20063;-78
2022/04/07 11:47:22;;;;;;;12.45;2.95;;;10.20;99.90;;;;;;5072535;28;20518;-79
2022/04/07 11:49:49;;;;;;;8.82;2.55;;;10.10;99.90;;;;;;5068898;28;20558;-78
2022/04/07 11:52:23;;;;;;;13.43;2.60;;;10.30;99.90;;;;;;5075721;28;20507;-79
2022/04/07 11:54:52;;;;;;;7.50;2.72;;;10.40;99.90;;;;;;5094845;28;20500;-79
2022/04/07 11:57:19;;;;;;;8.30;1.90;;;10.40;99.90;;;;;;5094108;28;20525;-77
2022/04/07 11:59:46;;;;;;;7.68;2.17;;;10.50;99.90;;;;;;5076448;28;20056;-79
2022/04/07 12:02:20;;;;;;;9.82;2.38;;;10.60;99.90;;;;;;5071185;28;20927;-78
2022/04/07 12:04:47;;;;;;;10.13;2.08;;;10.60;99.90;;;;;;5090702;28;20420;-79
2022/04/07 12:07:14;;;;;;;12.68;2.75;;;10.90;99.90;;;;;;5075206;28;20122;-79
2022/04/07 12:09:42;;;;;;;8.82;2.17;;;11.80;99.90;;;;;;5094352;28;20097;-79
2022/04/07 12:12:12;;;;;;;12.65;2.75;;;12.60;99.90;;;;;;5092811;28;20670;-79
2022/04/07 12:14:42;;;;;;;10.25;2.20;;;13.00;99.90;;;;;;5092490;28;20048;-79
2022/04/07 12:17:09;;;;;;;11.18;3.08;;;12.80;99.90;;;;;;5088376;28;20063;-79
2022/04/07 12:19:43;;;;;;;7.80;2.60;;;12.70;99.90;;;;;;5092860;28;20052;-79
2022/04/07 12:22:10;;;;;;;9.93;2.35;;;12.30;99.90;;;;;;5075947;28;20391;-79
2022/04/07 12:24:37;;;;;;;9.10;2.58;;;12.00;99.90;;;;;;5075535;28;20493;-79
2022/04/07 12:27:08;;;;;;;5.43;2.17;;;11.30;99.90;;;;;;5074909;28;20130;-79
2022/04/07 12:29:35;;;;;;;;;;;10.70;99.90;;;;;;5077188;28;20091;-78
2022/04/07 12:32:04;;;;;;;8.60;1.88;;;9.50;99.90;;;;;;5076659;28;20012;-78
2022/04/07 12:34:31;;;;;;;7.60;1.77;;;8.30;99.90;;;;;;5074540;28;20044;-77
2022/04/07 12:36:58;;;;;;;5.18;1.50;;;7.50;99.90;;;;;;5074864;28;20135;-77
2022/04/07 12:39:31;;;;;;;6.38;1.67;;;7.10;99.90;;;;;;5074599;28;20048;-77
2022/04/07 12:42:08;;;;;;;6.80;2.45;;;7.30;99.90;;;;;;5075813;28;20093;-78
2022/04/07 12:44:36;;;;;;;6.85;1.80;;;8.70;99.90;;;;;;5071052;28;20048;-78
2022/04/07 12:47:11;;;;;;;11.70;3.03;;;10.10;99.90;;;;;;5074568;28;20052;-78
2022/04/07 12:49:39;;;;;;;6.82;2.05;;;11.40;99.90;;;;;;5074876;28;20442;-79
2022/04/07 12:52:08;;;;;;;7.97;3.35;;;12.10;99.90;;;;;;5074706;28;20086;-79
2022/04/07 12:54:35;;;;;;;14.38;2.72;;;12.40;99.90;;;;;;5093057;28;20097;-79
2022/04/07 12:57:11;;;;;;;11.50;3.15;;;12.00;99.90;;;;;;5074790;28;20052;-79